createdAt,value
2022-11-29T00:01:05.159Z,9.00
2022-11-29T00:03:32.209Z,8.90
2022-11-29T00:06:14.599Z,9.00
2022-11-29T00:08:42.620Z,8.90
2022-11-29T00:11:35.728Z,8.90
2022-11-29T00:14:02.766Z,9.00
2022-11-29T00:16:30.115Z,9.00
2022-11-29T00:18:56.979Z,8.90
2022-11-29T00:21:23.937Z,8.90
2022-11-29T00:23:50.596Z,8.90
2022-11-29T00:26:17.368Z,8.90
2022-11-29T00:28:44.096Z,8.90
2022-11-29T00:31:19.826Z,8.90
2022-11-29T00:33:46.885Z,8.90
2022-11-29T00:36:13.676Z,8.80
2022-11-29T00:38:40.621Z,8.80
2022-11-29T00:41:07.711Z,8.80
2022-11-29T00:43:34.617Z,8.80
2022-11-29T00:46:01.962Z,8.80
2022-11-29T00:48:28.861Z,8.80
2022-11-29T00:50:55.641Z,8.80
2022-11-29T00:53:22.524Z,8.80
2022-11-29T00:55:51.074Z,8.70
2022-11-29T00:58:18.059Z,8.70
2022-11-29T01:00:44.916Z,8.70
2022-11-29T01:03:11.811Z,8.80
2022-11-29T01:05:38.462Z,8.80
2022-11-29T01:08:05.414Z,8.80
2022-11-29T01:10:32.395Z,8.80
2022-11-29T01:12:59.027Z,8.70
2022-11-29T01:15:25.627Z,8.60
2022-11-29T01:17:53.329Z,8.60
2022-11-29T01:20:20.573Z,8.60
2022-11-29T01:22:47.192Z,8.70
2022-11-29T01:25:14.110Z,8.70
2022-11-29T01:27:41.302Z,8.70
2022-11-29T01:30:09.602Z,8.70
2022-11-29T01:32:36.884Z,8.70
2022-11-29T01:35:05.458Z,8.80
2022-11-29T01:37:32.385Z,8.70
2022-11-29T01:39:59.000Z,8.70
2022-11-29T01:42:25.608Z,8.70
2022-11-29T01:45:26.112Z,8.70
2022-11-29T01:47:56.504Z,8.70
2022-11-29T01:50:23.143Z,8.70
2022-11-29T01:52:49.850Z,8.70
2022-11-29T01:55:16.715Z,8.80
2022-11-29T01:57:44.120Z,8.80
2022-11-29T02:00:14.755Z,8.70
2022-11-29T02:02:46.352Z,8.80
2022-11-29T02:05:14.923Z,8.80
2022-11-29T02:07:45.738Z,8.80
2022-11-29T02:10:15.212Z,8.80
2022-11-29T02:13:00.864Z,8.80
2022-11-29T02:15:49.030Z,8.70
2022-11-29T02:18:27.733Z,8.80
2022-11-29T02:21:14.393Z,8.80
2022-11-29T02:24:01.323Z,8.70
2022-11-29T02:27:02.444Z,8.70
2022-11-29T02:29:49.936Z,8.60
2022-11-29T02:32:34.758Z,8.60
2022-11-29T02:35:28.851Z,8.70
2022-11-29T02:38:36.106Z,8.70
2022-11-29T02:41:27.366Z,8.70
2022-11-29T02:44:21.997Z,8.70
2022-11-29T02:47:08.021Z,8.60
2022-11-29T02:49:55.985Z,8.70
2022-11-29T02:52:48.544Z,8.70
2022-11-29T02:55:29.526Z,8.70
2022-11-29T02:58:05.588Z,8.80
2022-11-29T03:00:35.407Z,8.80
2022-11-29T03:03:23.992Z,8.80
2022-11-29T03:06:21.277Z,8.80
2022-11-29T03:09:00.632Z,8.80
2022-11-29T03:11:41.037Z,8.90
2022-11-29T03:14:51.242Z,8.90
2022-11-29T03:17:34.121Z,8.90
2022-11-29T03:20:28.946Z,8.90
2022-11-29T03:23:18.827Z,8.90
2022-11-29T03:26:04.407Z,9.00
2022-11-29T03:29:06.989Z,9.00
2022-11-29T03:31:40.026Z,8.90
2022-11-29T03:34:36.017Z,8.90
2022-11-29T03:37:32.885Z,8.90
2022-11-29T03:40:07.694Z,8.90
2022-11-29T03:42:54.885Z,9.00
2022-11-29T03:45:29.226Z,9.00
2022-11-29T03:48:05.049Z,9.10
2022-11-29T03:50:54.560Z,9.10
2022-11-29T03:53:33.342Z,9.10
2022-11-29T03:56:38.423Z,9.00
2022-11-29T03:59:12.173Z,9.00
2022-11-29T04:02:21.085Z,9.00
2022-11-29T04:05:19.513Z,8.90
2022-11-29T04:08:36.338Z,8.90
2022-11-29T04:11:24.522Z,8.90
2022-11-29T04:13:57.673Z,8.90
2022-11-29T04:16:41.097Z,8.90
2022-11-29T04:19:41.695Z,8.90
2022-11-29T04:22:32.624Z,8.90
2022-11-29T04:25:53.653Z,9.00
2022-11-29T04:29:02.087Z,9.00
2022-11-29T04:31:45.577Z,9.00
2022-11-29T04:34:38.593Z,9.00
2022-11-29T04:37:53.321Z,9.00
2022-11-29T04:40:49.402Z,9.00
2022-11-29T04:44:00.774Z,9.00
2022-11-29T04:47:11.843Z,9.00
2022-11-29T04:49:47.597Z,8.90
2022-11-29T04:52:27.149Z,8.90
2022-11-29T04:55:31.419Z,8.90
2022-11-29T04:58:14.332Z,8.90
2022-11-29T05:00:55.116Z,8.90
2022-11-29T05:03:35.262Z,9.00
2022-11-29T05:06:20.227Z,8.90
2022-11-29T05:09:24.376Z,8.90
2022-11-29T05:12:05.229Z,8.90
2022-11-29T05:14:53.177Z,8.90
2022-11-29T05:17:44.900Z,8.90
2022-11-29T05:20:41.928Z,8.90
2022-11-29T05:23:49.963Z,8.80
2022-11-29T05:26:57.351Z,8.80
2022-11-29T05:29:45.451Z,8.90
2022-11-29T05:32:53.933Z,8.90
2022-11-29T05:35:40.821Z,8.80
2022-11-29T05:38:32.801Z,8.80
2022-11-29T05:41:28.360Z,8.80
2022-11-29T05:44:10.267Z,8.80
2022-11-29T05:46:46.092Z,8.90
2022-11-29T05:49:30.939Z,8.90
2022-11-29T05:51:57.513Z,8.90
2022-11-29T05:54:31.179Z,8.90
2022-11-29T05:57:28.853Z,8.80
2022-11-29T05:59:57.337Z,8.70
2022-11-29T06:02:50.982Z,8.80
2022-11-29T06:05:28.710Z,8.90
2022-11-29T06:08:08.289Z,8.90
2022-11-29T06:10:39.911Z,9.00
2022-11-29T06:13:21.837Z,9.00
2022-11-29T06:16:06.833Z,9.00
2022-11-29T06:18:39.171Z,9.00
2022-11-29T06:21:25.587Z,8.90
2022-11-29T06:24:18.582Z,9.00
2022-11-29T06:26:54.568Z,9.00
2022-11-29T06:29:33.423Z,9.00
2022-11-29T06:32:12.920Z,9.00
2022-11-29T06:34:53.343Z,9.10
2022-11-29T06:37:23.723Z,9.10
2022-11-29T06:39:50.592Z,9.20
2022-11-29T06:42:17.325Z,9.10
2022-11-29T06:44:44.533Z,9.20
2022-11-29T06:47:39.532Z,9.20
2022-11-29T06:50:30.053Z,9.20
2022-11-29T06:53:08.588Z,9.20
2022-11-29T06:56:07.878Z,9.20
2022-11-29T06:58:58.814Z,9.20
2022-11-29T07:01:34.023Z,9.20
2022-11-29T07:04:45.462Z,9.20
2022-11-29T07:07:20.027Z,9.30
2022-11-29T07:09:50.252Z,9.30
2022-11-29T07:12:17.719Z,9.30
2022-11-29T07:14:45.336Z,9.30
2022-11-29T07:17:38.467Z,9.30
2022-11-29T07:20:35.532Z,9.10
2022-11-29T07:23:25.368Z,9.20
2022-11-29T07:26:12.266Z,9.10
2022-11-29T07:28:59.839Z,9.20
2022-11-29T07:32:04.137Z,9.20
2022-11-29T07:34:54.876Z,9.20
2022-11-29T07:37:43.976Z,9.20
2022-11-29T07:40:37.726Z,9.20
2022-11-29T07:43:19.180Z,9.30
2022-11-29T07:45:45.889Z,9.30
2022-11-29T07:48:13.330Z,9.30
2022-11-29T07:50:40.917Z,9.30
2022-11-29T07:53:09.236Z,9.30
2022-11-29T07:55:36.937Z,9.20
2022-11-29T07:58:03.532Z,9.30
2022-11-29T08:00:30.200Z,9.20
2022-11-29T08:02:56.784Z,9.20
2022-11-29T08:05:23.910Z,9.20
2022-11-29T08:07:51.540Z,9.20
2022-11-29T08:10:18.181Z,9.20
2022-11-29T08:12:48.519Z,9.40
2022-11-29T08:15:15.735Z,9.40
2022-11-29T08:17:42.407Z,9.40
2022-11-29T08:20:10.442Z,9.30
2022-11-29T08:22:37.235Z,9.40
2022-11-29T08:25:04.959Z,9.30
2022-11-29T08:27:31.870Z,9.30
2022-11-29T08:29:58.629Z,9.30
2022-11-29T08:32:26.328Z,9.30
2022-11-29T08:34:53.037Z,9.40
2022-11-29T08:37:19.729Z,9.30
2022-11-29T08:39:46.320Z,9.30
2022-11-29T08:42:13.064Z,9.20
2022-11-29T08:44:39.813Z,9.30
2022-11-29T08:47:25.213Z,9.30
2022-11-29T08:50:01.092Z,9.30
2022-11-29T08:52:51.480Z,9.30
2022-11-29T08:55:20.069Z,9.30
2022-11-29T08:57:48.130Z,9.30
2022-11-29T09:00:15.453Z,9.20
2022-11-29T09:02:42.199Z,9.30
2022-11-29T09:05:10.775Z,9.30
2022-11-29T09:07:38.098Z,9.30
2022-11-29T09:10:08.078Z,9.40
2022-11-29T09:12:36.133Z,9.40
2022-11-29T09:15:05.339Z,9.40
2022-11-29T09:17:32.060Z,9.40
2022-11-29T09:19:58.644Z,9.50
2022-11-29T09:22:25.683Z,9.40
2022-11-29T09:24:52.273Z,9.40
2022-11-29T09:27:18.929Z,9.40
2022-11-29T09:29:45.599Z,9.50
2022-11-29T09:32:12.218Z,9.50
2022-11-29T09:34:38.823Z,9.60
2022-11-29T09:37:05.862Z,9.50
2022-11-29T09:39:32.574Z,9.50
2022-11-29T09:42:34.645Z,9.60
2022-11-29T09:45:09.657Z,9.60
2022-11-29T09:48:23.138Z,11.10
2022-11-29T09:51:06.402Z,10.80
2022-11-29T09:53:43.675Z,10.50
2022-11-29T09:56:44.582Z,10.30
2022-11-29T09:59:27.341Z,10.20
2022-11-29T10:02:04.222Z,10.00
2022-11-29T10:04:40.262Z,9.90
2022-11-29T10:07:17.738Z,10.00
2022-11-29T10:09:56.816Z,10.00
2022-11-29T10:12:40.660Z,10.00
2022-11-29T10:15:21.057Z,10.00
2022-11-29T10:17:47.622Z,10.00
2022-11-29T10:20:22.593Z,10.00
2022-11-29T10:23:10.909Z,9.90
2022-11-29T10:25:49.718Z,9.90
2022-11-29T10:28:19.717Z,9.80
2022-11-29T10:30:46.957Z,9.80
2022-11-29T10:33:20.968Z,9.80
2022-11-29T10:35:50.778Z,9.80
2022-11-29T10:38:33.212Z,9.60
2022-11-29T10:41:10.750Z,9.60
2022-11-29T10:43:38.337Z,9.70
2022-11-29T10:46:09.396Z,9.60
2022-11-29T10:48:36.076Z,9.60
2022-11-29T10:51:03.318Z,9.60
2022-11-29T10:53:36.949Z,9.50
2022-11-29T10:56:30.973Z,9.50
2022-11-29T10:59:04.960Z,9.60
2022-11-29T11:01:33.618Z,9.50
2022-11-29T11:04:03.113Z,9.50
2022-11-29T11:07:06.081Z,9.40
2022-11-29T11:09:40.328Z,9.40
2022-11-29T11:12:16.164Z,9.40
2022-11-29T11:14:45.642Z,9.50
2022-11-29T11:17:26.221Z,9.30
2022-11-29T11:20:20.185Z,9.30
2022-11-29T11:23:32.519Z,10.20
2022-11-29T11:26:02.825Z,10.00
2022-11-29T11:28:49.936Z,9.80
2022-11-29T11:31:26.734Z,9.80
2022-11-29T11:33:53.529Z,9.70
2022-11-29T11:36:20.081Z,9.70
2022-11-29T11:39:11.229Z,9.70
2022-11-29T11:42:06.418Z,10.20
2022-11-29T11:44:49.359Z,10.20
2022-11-29T11:47:20.840Z,9.90
2022-11-29T11:50:02.449Z,9.70
2022-11-29T11:52:39.582Z,9.60
2022-11-29T11:55:23.115Z,9.40
2022-11-29T11:58:09.673Z,9.40
2022-11-29T12:01:03.888Z,9.50
2022-11-29T12:03:34.903Z,9.40
2022-11-29T12:06:23.104Z,9.30
2022-11-29T12:08:51.079Z,9.30
2022-11-29T12:11:19.852Z,9.30
2022-11-29T12:13:53.821Z,9.30
2022-11-29T12:16:29.362Z,9.30
2022-11-29T12:19:07.561Z,9.40
2022-11-29T12:21:40.335Z,9.40
2022-11-29T12:24:33.015Z,9.40
2022-11-29T12:27:04.806Z,9.40
2022-11-29T12:29:34.262Z,9.30
2022-11-29T12:32:25.547Z,9.40
2022-11-29T12:34:55.266Z,9.40
2022-11-29T12:37:34.451Z,9.40
2022-11-29T12:40:41.538Z,9.40
2022-11-29T12:43:24.899Z,9.40
2022-11-29T12:46:08.939Z,9.50
2022-11-29T12:49:09.077Z,9.40
2022-11-29T12:52:03.135Z,9.40
2022-11-29T12:54:38.578Z,9.40
2022-11-29T12:57:20.849Z,9.30
2022-11-29T13:00:01.017Z,9.20
2022-11-29T13:02:36.708Z,9.20
2022-11-29T13:05:19.419Z,9.00
2022-11-29T13:08:07.220Z,9.10
2022-11-29T13:10:39.801Z,9.10
2022-11-29T13:13:38.706Z,9.20
2022-11-29T13:16:31.420Z,9.20
2022-11-29T13:19:07.928Z,9.20
2022-11-29T13:21:46.212Z,9.20
2022-11-29T13:24:16.677Z,9.20
2022-11-29T13:26:44.170Z,9.20
2022-11-29T13:29:17.993Z,9.20
2022-11-29T13:31:46.617Z,9.20
2022-11-29T13:34:40.651Z,9.20
2022-11-29T13:37:26.154Z,9.20
2022-11-29T13:39:55.731Z,9.20
2022-11-29T13:42:22.331Z,9.20
2022-11-29T13:45:10.547Z,9.20
2022-11-29T13:47:59.917Z,9.20
2022-11-29T13:50:42.821Z,9.20
2022-11-29T13:53:17.082Z,9.30
2022-11-29T13:56:00.208Z,9.30
2022-11-29T13:58:35.137Z,9.30
2022-11-29T14:01:05.603Z,9.30
2022-11-29T14:03:42.237Z,9.30
2022-11-29T14:06:23.406Z,9.30
2022-11-29T14:09:17.915Z,9.30
2022-11-29T14:11:42.100Z,9.30
2022-11-29T14:14:34.615Z,9.30
2022-11-29T14:17:04.423Z,9.40
2022-11-29T14:19:34.477Z,9.30
2022-11-29T14:22:07.148Z,9.30
2022-11-29T14:24:37.661Z,9.30
2022-11-29T14:27:15.886Z,10.20
2022-11-29T14:29:52.691Z,10.10
2022-11-29T14:32:45.936Z,9.70
2022-11-29T14:35:13.055Z,9.60
2022-11-29T14:38:13.012Z,9.40
2022-11-29T14:40:42.688Z,9.50
2022-11-29T14:43:32.602Z,9.40
2022-11-29T14:46:16.533Z,9.40
2022-11-29T14:48:54.597Z,9.40
2022-11-29T14:51:22.752Z,9.30
2022-11-29T14:54:06.400Z,9.30
2022-11-29T14:56:34.936Z,9.30
2022-11-29T14:59:38.608Z,9.30
2022-11-29T15:02:27.732Z,9.30
2022-11-29T15:05:04.942Z,9.40
2022-11-29T15:07:33.069Z,9.30
2022-11-29T15:10:04.008Z,9.30
2022-11-29T15:12:36.248Z,9.30
2022-11-29T15:15:21.487Z,9.30
2022-11-29T15:18:06.697Z,9.30
2022-11-29T15:21:06.842Z,9.40
2022-11-29T15:23:41.592Z,9.30
2022-11-29T15:26:19.094Z,9.40
2022-11-29T15:28:45.946Z,9.30
2022-11-29T15:31:20.064Z,9.40
2022-11-29T15:33:49.130Z,9.50
2022-11-29T15:36:21.002Z,9.40
2022-11-29T15:38:53.560Z,9.30
2022-11-29T15:41:40.409Z,9.30
2022-11-29T15:44:19.400Z,9.20
2022-11-29T15:46:45.988Z,9.20
2022-11-29T15:49:24.003Z,9.20
2022-11-29T15:51:56.769Z,9.10
2022-11-29T15:54:29.912Z,9.10
2022-11-29T15:57:00.687Z,9.20
2022-11-29T15:59:33.193Z,9.20
2022-11-29T16:02:07.521Z,9.10
2022-11-29T16:04:43.587Z,9.10
2022-11-29T16:07:13.736Z,9.10
2022-11-29T16:09:44.412Z,9.10
2022-11-29T16:12:16.849Z,9.10
2022-11-29T16:14:56.425Z,9.20
2022-11-29T16:17:32.431Z,9.20
2022-11-29T16:20:24.976Z,9.20
2022-11-29T16:23:11.282Z,9.20
2022-11-29T16:25:59.351Z,9.30
2022-11-29T16:28:33.673Z,9.30
2022-11-29T16:31:00.518Z,9.30
2022-11-29T16:33:27.918Z,9.30
2022-11-29T16:36:25.074Z,9.20
2022-11-29T16:38:54.483Z,9.10
2022-11-29T16:41:38.250Z,9.20
2022-11-29T16:44:06.744Z,9.20
2022-11-29T16:46:39.219Z,9.20
2022-11-29T16:49:31.648Z,9.30
2022-11-29T16:51:58.390Z,9.20
2022-11-29T16:54:26.184Z,9.10
2022-11-29T16:56:54.422Z,9.20
2022-11-29T16:59:27.205Z,9.20
2022-11-29T17:01:56.665Z,9.20
2022-11-29T17:04:24.685Z,9.20
2022-11-29T17:06:53.596Z,9.20
2022-11-29T17:09:24.345Z,9.20
2022-11-29T17:11:51.629Z,9.10
2022-11-29T17:14:18.203Z,9.10
2022-11-29T17:16:44.964Z,9.10
2022-11-29T17:19:12.800Z,9.10
2022-11-29T17:21:39.882Z,9.10
2022-11-29T17:24:09.373Z,9.10
2022-11-29T17:26:35.981Z,9.00
2022-11-29T17:29:02.614Z,9.00
2022-11-29T17:31:30.030Z,9.00
2022-11-29T17:33:59.606Z,9.00
2022-11-29T17:36:26.362Z,9.00
2022-11-29T17:38:52.960Z,9.00
2022-11-29T17:41:22.783Z,9.00
2022-11-29T17:43:51.276Z,9.00
2022-11-29T17:46:21.549Z,9.00
2022-11-29T17:48:49.165Z,8.90
2022-11-29T17:51:49.871Z,8.90
2022-11-29T17:54:05.594Z,8.90
2022-11-29T17:56:32.379Z,9.00
2022-11-29T17:59:01.514Z,9.10
2022-11-29T18:01:30.975Z,9.10
2022-11-29T18:04:00.083Z,9.20
2022-11-29T18:06:28.922Z,9.10
2022-11-29T18:08:57.795Z,9.10
2022-11-29T18:11:46.993Z,9.00
2022-11-29T18:14:16.877Z,9.00
2022-11-29T18:16:45.265Z,8.90
2022-11-29T18:19:14.975Z,8.90
2022-11-29T18:21:41.749Z,8.80
2022-11-29T18:24:08.979Z,8.70
2022-11-29T18:26:36.922Z,8.70
2022-11-29T18:29:05.194Z,8.70
2022-11-29T18:31:34.758Z,8.60
2022-11-29T18:34:06.715Z,8.70
2022-11-29T18:36:39.345Z,8.60
2022-11-29T18:39:08.819Z,8.60
2022-11-29T18:41:35.768Z,8.50
2022-11-29T18:44:08.779Z,8.60
2022-11-29T18:46:37.396Z,8.60
2022-11-29T18:49:07.117Z,8.60
2022-11-29T18:51:35.022Z,8.50
2022-11-29T18:54:02.263Z,8.60
2022-11-29T18:56:31.190Z,8.60
2022-11-29T18:59:00.243Z,8.60
2022-11-29T19:01:29.463Z,8.50
2022-11-29T19:03:58.457Z,8.60
2022-11-29T19:06:28.020Z,8.60
2022-11-29T19:08:56.897Z,8.50
2022-11-29T19:11:24.699Z,8.50
2022-11-29T19:13:56.751Z,8.60
2022-11-29T19:16:25.429Z,8.50
2022-11-29T19:18:55.340Z,8.50
2022-11-29T19:21:23.614Z,8.50
2022-11-29T19:23:55.573Z,8.50
2022-11-29T19:26:25.094Z,8.50
2022-11-29T19:28:51.920Z,8.60
2022-11-29T19:31:20.333Z,8.50
2022-11-29T19:33:47.016Z,8.60
2022-11-29T19:36:33.919Z,8.50
2022-11-29T19:39:01.708Z,8.60
2022-11-29T19:41:30.660Z,8.50
2022-11-29T19:43:59.409Z,8.50
2022-11-29T19:46:31.635Z,8.50
2022-11-29T19:48:59.692Z,8.50
2022-11-29T19:51:27.881Z,8.50
2022-11-29T19:53:56.852Z,8.50
2022-11-29T19:56:23.824Z,8.50
2022-11-29T19:58:51.198Z,8.50
2022-11-29T20:01:20.293Z,8.50
2022-11-29T20:03:46.982Z,8.40
2022-11-29T20:06:14.127Z,8.50
2022-11-29T20:08:41.860Z,8.50
2022-11-29T20:11:17.418Z,8.40
2022-11-29T20:13:46.915Z,8.40
2022-11-29T20:16:19.940Z,8.40
2022-11-29T20:18:51.155Z,8.40
2022-11-29T20:21:22.981Z,8.40
2022-11-29T20:23:54.083Z,8.40
2022-11-29T20:26:21.047Z,8.30
2022-11-29T20:28:48.003Z,8.30
2022-11-29T20:31:21.131Z,8.30
2022-11-29T20:33:48.535Z,8.40
2022-11-29T20:36:45.917Z,8.40
2022-11-29T20:39:40.676Z,8.20
2022-11-29T20:42:16.204Z,8.20
2022-11-29T20:44:51.839Z,8.20
2022-11-29T20:47:21.105Z,8.20
2022-11-29T20:49:48.502Z,8.30
2022-11-29T20:52:37.331Z,8.30
2022-11-29T20:55:04.981Z,8.40
2022-11-29T20:57:31.635Z,8.40
2022-11-29T20:59:59.604Z,8.40
2022-11-29T21:02:26.344Z,8.40
2022-11-29T21:04:52.958Z,8.40
2022-11-29T21:07:19.677Z,8.40
2022-11-29T21:09:46.371Z,8.40
2022-11-29T21:12:13.481Z,8.40
2022-11-29T21:14:40.365Z,8.40
2022-11-29T21:17:08.424Z,8.30
2022-11-29T21:19:35.589Z,8.30
2022-11-29T21:22:27.895Z,8.30
2022-11-29T21:25:00.251Z,8.30
2022-11-29T21:27:30.941Z,8.20
2022-11-29T21:29:57.920Z,8.10
2022-11-29T21:32:26.127Z,8.10
2022-11-29T21:34:52.972Z,8.20
2022-11-29T21:37:22.048Z,8.20
2022-11-29T21:39:51.376Z,8.20
2022-11-29T21:42:18.215Z,8.30
2022-11-29T21:44:45.264Z,8.30
2022-11-29T21:47:12.802Z,8.30
2022-11-29T21:49:39.937Z,8.30
2022-11-29T21:52:06.856Z,8.30
2022-11-29T21:54:33.591Z,8.30
2022-11-29T21:57:01.598Z,8.30
2022-11-29T21:59:28.268Z,8.30
2022-11-29T22:01:55.081Z,8.30
2022-11-29T22:04:21.823Z,8.20
2022-11-29T22:06:48.480Z,8.20
2022-11-29T22:09:15.080Z,8.20
2022-11-29T22:11:42.313Z,8.20
2022-11-29T22:14:14.968Z,8.10
2022-11-29T22:16:54.817Z,8.10
2022-11-29T22:19:24.103Z,8.00
2022-11-29T22:21:52.763Z,8.00
2022-11-29T22:24:21.440Z,8.00
2022-11-29T22:26:49.012Z,8.00
2022-11-29T22:29:16.139Z,8.10
2022-11-29T22:31:44.500Z,8.00
2022-11-29T22:34:11.618Z,8.10
2022-11-29T22:36:39.321Z,8.10
2022-11-29T22:39:06.740Z,8.20
2022-11-29T22:41:34.216Z,8.20
2022-11-29T22:44:00.993Z,8.20
2022-11-29T22:46:28.622Z,8.20
2022-11-29T22:48:57.475Z,8.10
2022-11-29T22:51:35.890Z,8.20
2022-11-29T22:54:05.291Z,8.30
2022-11-29T22:56:37.548Z,8.20
2022-11-29T22:59:04.527Z,8.20
2022-11-29T23:01:33.538Z,8.20
2022-11-29T23:04:03.815Z,8.20
2022-11-29T23:06:32.817Z,8.20
2022-11-29T23:09:05.406Z,8.20
2022-11-29T23:11:32.525Z,8.20
2022-11-29T23:14:00.270Z,8.20
2022-11-29T23:16:29.423Z,8.20
2022-11-29T23:19:00.821Z,8.20
2022-11-29T23:21:32.721Z,8.10
2022-11-29T23:24:02.648Z,8.10
2022-11-29T23:26:40.657Z,8.10
2022-11-29T23:29:10.340Z,8.10
2022-11-29T23:31:37.236Z,8.10
2022-11-29T23:34:04.590Z,8.10
2022-11-29T23:36:31.379Z,8.10
2022-11-29T23:38:58.008Z,8.10
2022-11-29T23:41:24.885Z,8.00
2022-11-29T23:43:51.488Z,8.00
2022-11-29T23:46:21.349Z,8.00
2022-11-29T23:48:48.765Z,8.00
2022-11-29T23:51:16.382Z,8.00
2022-11-29T23:53:43.384Z,8.00
2022-11-29T23:56:15.359Z,7.90
2022-11-29T23:58:43.006Z,8.00
